Time;durP1;ratioP1;P1;durP2;ratioP2;P2;SDS_P1;SDS_P2;PMS_P1;PMS_P2;Temp;Humidity;BMP_temperature;BMP_pressure;BME280_temperature;BME280_humidity;BME280_pressure;Samples;Min_cycle;Max_cycle;Signal;HPM_P1;HPM_P2
2023/01/09 00:02:25;;;;;;;3.20;1.27;;;;;;;6.76;100.00;99210.88;5054621;28;20421;-53
2023/01/09 00:04:53;;;;;;;3.05;1.10;;;;;;;6.77;100.00;99220.38;5055898;28;20076;-52
2023/01/09 00:07:24;;;;;;;2.63;1.33;;;;;;;6.73;100.00;99221.56;5055841;28;20044;-59
2023/01/09 00:09:52;;;;;;;1.77;1.00;;;;;;;6.67;100.00;99235.91;5055719;28;20041;-59
2023/01/09 00:12:20;;;;;;;3.30;1.20;;;;;;;6.70;100.00;99227.84;5052864;28;20126;-59
2023/01/09 00:14:48;;;;;;;1.45;1.27;;;;;;;6.68;100.00;99221.06;5052833;28;20140;-59
2023/01/09 00:17:16;;;;;;;2.15;0.98;;;;;;;6.66;100.00;99225.59;5055251;28;20053;-59
2023/01/09 00:19:44;;;;;;;2.70;0.95;;;;;;;6.60;100.00;99229.50;5055543;28;20045;-59
2023/01/09 00:22:12;;;;;;;3.92;1.05;;;;;;;6.64;100.00;99228.31;5053219;28;20049;-59
2023/01/09 00:24:43;;;;;;;3.45;1.05;;;;;;;6.62;100.00;99226.75;5053127;28;20091;-59
2023/01/09 00:27:13;;;;;;;1.70;0.60;;;;;;;6.61;100.00;99220.69;5054405;28;20128;-59
2023/01/09 00:29:44;;;;;;;2.22;1.10;;;;;;;6.58;100.00;99224.34;5052309;28;20041;-59
2023/01/09 00:32:13;;;;;;;3.78;0.90;;;;;;;6.60;100.00;99234.72;5054462;28;20049;-59
2023/01/09 00:34:42;;;;;;;2.85;0.70;;;;;;;6.52;100.00;99224.81;5055854;28;20491;-59
2023/01/09 00:37:12;;;;;;;1.65;0.80;;;;;;;6.47;100.00;99220.88;5055508;28;20053;-59
2023/01/09 00:39:41;;;;;;;5.72;0.68;;;;;;;6.50;100.00;99228.50;5054450;28;20056;-59
2023/01/09 00:42:14;;;;;;;1.92;0.77;;;;;;;6.49;100.00;99216.38;5052155;28;20075;-59
2023/01/09 00:44:46;;;;;;;1.17;0.80;;;;;;;6.44;100.00;99219.34;5053893;28;20511;-59
2023/01/09 00:47:21;;;;;;;1.38;0.60;;;;;;;6.44;100.00;99235.00;5055147;28;20106;-59
2023/01/09 00:49:51;;;;;;;2.40;0.80;;;;;;;6.36;100.00;99240.78;5054959;28;20128;-59
2023/01/09 00:52:20;;;;;;;2.38;0.77;;;;;;;6.38;100.00;99231.06;5054011;28;20090;-59
2023/01/09 00:54:49;;;;;;;1.45;0.73;;;;;;;6.36;100.00;99238.16;5055087;28;20412;-59
2023/01/09 00:57:18;;;;;;;1.27;0.60;;;;;;;6.31;100.00;99245.50;5053062;28;20049;-59
2023/01/09 00:59:47;;;;;;;3.53;0.80;;;;;;;6.22;100.00;99243.59;5051747;28;20057;-59
2023/01/09 01:02:15;;;;;;;3.03;0.70;;;;;;;6.22;100.00;99252.22;5054926;28;20037;-59
2023/01/09 01:07:42;;;;;;;1.83;0.80;;;;;;;6.16;100.00;99249.22;5054543;28;20052;-59
2023/01/09 01:10:12;;;;;;;1.55;0.55;;;;;;;6.10;100.00;99250.50;5054621;28;20053;-59
2023/01/09 01:12:43;;;;;;;1.98;0.70;;;;;;;6.11;100.00;99246.97;5053402;28;20495;-59
2023/01/09 01:15:12;;;;;;;2.58;0.80;;;;;;;5.97;100.00;99254.91;5053461;28;20049;-59
2023/01/09 01:17:42;;;;;;;2.58;0.60;;;;;;;6.03;100.00;99257.94;5054147;28;20041;-59
2023/01/09 01:20:12;;;;;;;3.33;0.90;;;;;;;6.01;100.00;99253.78;5054136;28;20053;-59
2023/01/09 01:22:41;;;;;;;2.78;0.80;;;;;;;5.92;100.00;99266.50;5054539;28;20080;-59
2023/01/09 01:25:11;;;;;;;1.55;0.68;;;;;;;5.89;100.00;99263.25;5054376;28;20053;-59
2023/01/09 01:27:39;;;;;;;1.83;0.80;;;;;;;5.79;100.00;99262.25;5054519;28;20041;-59
2023/01/09 01:30:12;;;;;;;2.03;1.30;;;;;;;5.76;100.00;99255.47;5054293;28;20041;-59
2023/01/09 01:32:40;;;;;;;2.63;1.00;;;;;;;5.71;100.00;99261.03;5051763;28;20048;-59
2023/01/09 01:35:09;;;;;;;2.83;1.02;;;;;;;5.66;100.00;99264.88;5051686;28;20072;-59
2023/01/09 01:37:38;;;;;;;2.80;1.25;;;;;;;5.66;100.00;99265.72;5054186;28;20080;-59
2023/01/09 01:40:08;;;;;;;4.00;1.23;;;;;;;5.70;100.00;99268.94;5053119;28;20060;-59
2023/01/09 01:42:36;;;;;;;5.35;1.27;;;;;;;5.65;100.00;99274.50;5052442;28;20127;-59
2023/01/09 01:45:09;;;;;;;2.08;1.23;;;;;;;5.66;100.00;99265.72;5049557;28;20040;-59
2023/01/09 01:47:45;;;;;;;3.30;1.00;;;;;;;5.65;100.00;99273.66;5052861;28;20102;-59
2023/01/09 01:50:19;;;;;;;3.63;1.13;;;;;;;5.57;100.00;99280.22;5054028;28;20067;-59
2023/01/09 01:52:54;;;;;;;7.22;1.40;;;;;;;5.57;100.00;99282.84;5053979;28;20075;-59
2023/01/09 01:55:23;;;;;;;1.75;1.15;;;;;;;5.57;100.00;99282.84;5053750;28;20049;-59
2023/01/09 01:57:56;;;;;;;3.03;1.23;;;;;;;5.48;100.00;99282.66;5053447;28;20095;-58
2023/01/09 02:00:30;;;;;;;2.83;1.30;;;;;;;5.40;100.00;99284.00;5053654;28;20053;-59
2023/01/09 02:03:00;;;;;;;3.17;1.45;;;;;;;5.36;100.00;99281.72;5052953;28;20052;-59
2023/01/09 02:05:29;;;;;;;2.92;1.55;;;;;;;5.27;100.00;99275.34;5049482;28;20079;-59
2023/01/09 02:07:57;;;;;;;5.18;1.52;;;;;;;5.33;100.00;99281.91;5052193;28;20462;-59
2023/01/09 02:10:25;;;;;;;4.05;1.30;;;;;;;5.30;100.00;99282.97;5053125;28;20055;-59
2023/01/09 02:12:53;;;;;;;5.18;1.48;;;;;;;5.33;100.00;99281.91;5053622;28;20488;-59
2023/01/09 02:15:22;;;;;;;3.42;1.60;;;;;;;5.27;100.00;99272.75;5053613;28;20053;-59
2023/01/09 02:18:16;;;;;;;3.70;1.33;;;;;;;5.29;100.00;99277.84;5053413;28;20060;-59
2023/01/09 02:20:52;;;;;;;4.38;1.40;;;;;;;5.27;100.00;99285.78;5052626;28;20380;-59
2023/01/09 02:23:54;;;;;;;2.58;1.20;;;;;;;5.20;100.00;99284.53;5052798;28;20068;-59
2023/01/09 02:26:51;;;;;;;4.25;1.85;;;;;;;5.20;100.00;99281.94;5050260;28;20146;-59
2023/01/09 02:30:00;;;;;;;5.28;1.52;;;;;;;5.16;100.00;99286.50;5052431;28;20139;-59
2023/01/09 02:32:43;;;;;;;2.38;1.33;;;;;;;5.10;100.00;99286.94;5053321;28;20496;-58
2023/01/09 02:35:23;;;;;;;4.50;1.58;;;;;;;5.04;100.00;99287.31;5052560;28;20530;-58
2023/01/09 02:38:02;;;;;;;2.83;1.25;;;;;;;5.09;100.00;99290.47;5049673;28;20056;-59
2023/01/09 02:40:36;;;;;;;4.32;1.35;;;;;;;5.04;100.00;99289.94;5050264;28;20384;-59
2023/01/09 02:43:06;;;;;;;5.60;1.70;;;;;;;5.00;100.00;99291.06;5053117;28;20095;-59
2023/01/09 02:45:36;;;;;;;3.47;1.42;;;;;;;4.99;100.00;99292.00;5053096;28;20045;-59
2023/01/09 02:48:05;;;;;;;4.45;1.58;;;;;;;5.01;100.00;99292.75;5053145;28;20627;-59
2023/01/09 02:50:39;;;;;;;4.60;1.40;;;;;;;5.01;100.00;99282.31;5052885;28;20045;-59
2023/01/09 02:53:46;;;;;;;4.57;1.80;;;;;;;4.98;100.00;99285.16;5051866;28;20079;-59
2023/01/09 02:56:35;;;;;;;4.43;1.40;;;;;;;4.89;100.00;99287.44;5031937;28;20064;-59
2023/01/09 02:59:26;;;;;;;5.18;1.65;;;;;;;4.94;100.00;99294.09;5052720;28;20500;-58
2023/01/09 03:02:13;;;;;;;6.50;1.80;;;;;;;4.87;100.00;99289.28;5050509;28;20072;-59
2023/01/09 03:04:53;;;;;;;4.93;1.88;;;;;;;4.90;100.00;99285.66;5053295;28;20147;-58
2023/01/09 03:07:27;;;;;;;5.22;2.50;;;;;;;4.89;100.00;99279.63;5052697;28;20452;-58
2023/01/09 03:10:06;;;;;;;5.93;2.08;;;;;;;4.85;100.00;99279.91;5052694;28;20072;-58
2023/01/09 03:12:36;;;;;;;5.47;1.73;;;;;;;4.83;100.00;99279.19;5052625;28;20550;-58
2023/01/09 03:15:06;;;;;;;4.72;1.83;;;;;;;4.81;100.00;99291.47;5052455;28;20040;-52
2023/01/09 03:17:39;;;;;;;4.13;1.50;;;;;;;4.79;100.00;99283.75;5052235;28;20103;-51
2023/01/09 03:20:10;;;;;;;5.70;1.88;;;;;;;4.81;100.00;99281.88;5052355;28;20045;-52
2023/01/09 03:22:39;;;;;;;5.50;1.70;;;;;;;4.77;100.00;99292.59;5050895;28;20045;-58
2023/01/09 03:25:08;;;;;;;7.47;1.50;;;;;;;4.76;100.00;99289.16;5050058;28;20048;-58
2023/01/09 03:27:36;;;;;;;6.28;2.22;;;;;;;4.78;100.00;99296.88;5051487;28;20441;-58
2023/01/09 03:30:05;;;;;;;4.40;1.77;;;;;;;4.67;100.00;99282.78;5052393;28;20049;-58
2023/01/09 03:32:33;;;;;;;5.88;2.00;;;;;;;4.67;100.00;99289.75;5052204;28;20049;-58
2023/01/09 03:35:04;;;;;;;6.00;1.80;;;;;;;4.61;100.00;99291.00;5052638;28;20053;-58
2023/01/09 03:37:32;;;;;;;6.53;1.70;;;;;;;4.57;100.00;99297.34;5052941;28;20111;-58
2023/01/09 03:40:00;;;;;;;7.13;1.90;;;;;;;4.55;100.00;99294.00;5052696;28;20083;-58
2023/01/09 03:42:28;;;;;;;5.72;1.70;;;;;;;4.56;100.00;99288.69;5052324;28;20140;-58
2023/01/09 03:44:56;;;;;;;4.97;1.48;;;;;;;4.59;100.00;99292.84;5051014;28;20103;-59
2023/01/09 03:47:24;;;;;;;6.03;2.20;;;;;;;4.55;100.00;99291.38;5048211;28;20443;-58
2023/01/09 03:49:52;;;;;;;5.22;1.67;;;;;;;4.52;100.00;99289.81;5050324;28;20053;-58
2023/01/09 03:52:22;;;;;;;4.90;1.50;;;;;;;4.51;100.00;99295.97;5052234;28;20055;-58
2023/01/09 03:54:50;;;;;;;6.00;1.60;;;;;;;4.46;100.00;99278.97;5051738;28;20047;-58
2023/01/09 03:57:18;;;;;;;6.63;1.52;;;;;;;4.42;100.00;99296.56;5051265;28;20052;-58
2023/01/09 03:59:46;;;;;;;5.25;1.73;;;;;;;4.44;100.00;99284.28;5047536;28;20150;-58
2023/01/09 04:02:14;;;;;;;6.60;1.50;;;;;;;4.37;100.00;99296.03;5049870;28;20045;-58
2023/01/09 04:04:43;;;;;;;3.90;1.58;;;;;;;4.38;100.00;99295.09;5051865;28;20052;-58
2023/01/09 04:07:11;;;;;;;6.85;1.95;;;;;;;4.39;100.00;99294.13;5050451;28;20049;-58
2023/01/09 04:09:40;;;;;;;4.25;1.65;;;;;;;4.36;100.00;99300.41;5051990;28;20045;-58
2023/01/09 04:12:09;;;;;;;6.07;2.05;;;;;;;4.33;100.00;99302.34;5052257;28;20064;-58
2023/01/09 04:14:37;;;;;;;4.55;1.42;;;;;;;4.30;100.00;99302.56;5050880;28;20515;-58
2023/01/09 04:17:05;;;;;;;4.75;1.40;;;;;;;4.37;100.00;99293.41;5048134;28;20053;-57
2023/01/09 04:19:33;;;;;;;4.95;1.70;;;;;;;4.35;100.00;99305.69;5050356;28;20120;-58
2023/01/09 04:22:01;;;;;;;4.93;1.77;;;;;;;4.29;100.00;99296.50;5051809;28;20041;-58
2023/01/09 04:24:31;;;;;;;9.73;2.30;;;;;;;4.26;100.00;99293.28;5051774;28;20047;-58
2023/01/09 04:27:03;;;;;;;7.28;2.00;;;;;;;4.26;100.00;99299.31;5050683;28;20051;-58
2023/01/09 04:29:31;;;;;;;7.03;2.13;;;;;;;4.27;100.00;99307.94;5052065;28;20359;-58
2023/01/09 04:32:00;;;;;;;4.78;1.70;;;;;;;4.24;100.00;99303.78;5051958;28;20051;-57
2023/01/09 04:34:28;;;;;;;7.22;2.00;;;;;;;4.17;100.00;99308.53;5051840;28;20049;-58
2023/01/09 04:36:56;;;;;;;5.78;2.10;;;;;;;4.21;100.00;99312.63;5051702;28;20049;-57
2023/01/09 04:39:24;;;;;;;7.32;1.77;;;;;;;4.22;100.00;99313.44;5051219;28;20080;-58
2023/01/09 04:41:52;;;;;;;7.35;2.25;;;;;;;4.21;100.00;99311.75;5048595;28;20130;-58
2023/01/09 04:44:25;;;;;;;5.70;1.98;;;;;;;4.24;100.00;99311.59;5052857;28;20248;-58
2023/01/09 04:46:55;;;;;;;6.88;2.30;;;;;;;4.21;100.00;99320.44;5055318;28;20095;-57
2023/01/09 04:49:23;;;;;;;8.52;2.33;;;;;;;4.19;100.00;99317.06;5055277;28;20048;-58
2023/01/09 04:51:51;;;;;;;8.57;2.47;;;;;;;4.21;100.00;99320.44;5055137;28;20041;-58
2023/01/09 04:54:22;;;;;;;6.97;1.92;;;;;;;4.19;100.00;99321.44;5055126;28;20124;-58
2023/01/09 04:56:50;;;;;;;6.97;2.13;;;;;;;4.23;100.00;99320.31;5055152;28;20052;-58
2023/01/09 04:59:19;;;;;;;7.70;3.00;;;;;;;4.25;100.00;99321.03;5054953;28;20064;-58
2023/01/09 05:01:49;;;;;;;7.20;1.95;;;;;;;4.30;100.00;99310.38;5054542;28;20071;-58
2023/01/09 05:04:17;;;;;;;11.68;2.47;;;;;;;4.32;100.00;99324.09;5051982;28;20052;-58
2023/01/09 05:06:45;;;;;;;7.05;2.17;;;;;;;4.32;100.00;99321.50;5052645;28;20076;-58
2023/01/09 05:09:14;;;;;;;7.47;2.50;;;;;;;4.33;100.00;99320.56;5054870;28;20051;-57
2023/01/09 05:11:42;;;;;;;8.93;1.92;;;;;;;4.36;100.00;99313.41;5055064;28;20443;-57
2023/01/09 05:14:11;;;;;;;7.22;2.22;;;;;;;4.40;100.00;99325.31;5054717;28;20048;-50
2023/01/09 05:16:39;;;;;;;10.30;3.08;;;;;;;4.43;100.00;99320.81;5054336;28;20388;-51
2023/01/09 05:19:09;;;;;;;9.52;2.28;;;;;;;4.47;100.00;99323.16;5054146;28;20045;-52
2023/01/09 05:21:37;;;;;;;10.52;2.00;;;;;;;4.47;100.00;99317.94;5054656;28;20084;-51
2023/01/09 05:24:06;;;;;;;9.30;1.92;;;;;;;4.49;100.00;99313.44;5054688;28;20049;-51
2023/01/09 05:26:34;;;;;;;4.93;1.90;;;;;;;4.49;100.00;99313.44;5054416;28;20511;-49
2023/01/09 05:29:02;;;;;;;7.28;1.77;;;;;;;4.51;100.00;99322.00;5054373;28;20446;-53
2023/01/09 05:31:30;;;;;;;6.13;1.95;;;;;;;4.61;100.00;99316.19;5053876;28;20045;-51
2023/01/09 05:33:59;;;;;;;7.28;2.05;;;;;;;4.60;100.00;99320.56;5054103;28;20041;-50
2023/01/09 05:36:29;;;;;;;5.32;1.58;;;;;;;4.60;100.00;99320.56;5053898;28;20547;-49
2023/01/09 05:39:01;;;;;;;6.00;1.63;;;;;;;4.64;100.00;99311.63;5053638;28;20055;-48
2023/01/09 05:41:29;;;;;;;7.68;1.92;;;;;;;4.56;100.00;99306.09;5054006;28;20048;-52
2023/01/09 05:43:57;;;;;;;5.85;2.33;;;;;;;4.56;100.00;99314.72;5054212;28;20057;-48
2023/01/09 05:46:26;;;;;;;6.93;1.75;;;;;;;4.53;100.00;99306.28;5054050;28;20045;-51
2023/01/09 05:48:54;;;;;;;7.25;1.98;;;;;;;4.52;100.00;99305.44;5053847;28;20072;-51
2023/01/09 05:51:22;;;;;;;6.25;2.65;;;;;;;4.51;100.00;99308.16;5053856;28;20056;-51
2023/01/09 05:53:51;;;;;;;8.55;1.80;;;;;;;4.54;100.00;99303.59;5053650;28;20049;-51
2023/01/09 05:56:19;;;;;;;4.38;1.67;;;;;;;4.55;100.00;99301.81;5052715;28;20045;-49
2023/01/09 05:58:48;;;;;;;7.85;2.42;;;;;;;4.57;100.00;99302.56;5053654;28;20115;-51
2023/01/09 06:01:16;;;;;;;8.15;1.65;;;;;;;4.54;100.00;99298.38;5053671;28;20043;-52
2023/01/09 06:03:44;;;;;;;6.45;1.73;;;;;;;4.57;100.00;99305.16;5053859;28;20044;-55
2023/01/09 06:06:13;;;;;;;5.50;1.77;;;;;;;4.62;100.00;99308.31;5050890;28;20049;-53
2023/01/09 06:08:42;;;;;;;5.97;1.70;;;;;;;4.64;100.00;99303.00;5050250;28;20044;-53
2023/01/09 06:11:11;;;;;;;7.70;1.85;;;;;;;4.60;100.00;99293.72;5053717;28;20495;-53
2023/01/09 06:13:39;;;;;;;5.63;1.95;;;;;;;4.63;100.00;99296.94;5052961;28;20052;-49
2023/01/09 06:16:08;;;;;;;7.45;1.77;;;;;;;4.67;100.00;99300.19;5049704;28;20518;-50
2023/01/09 06:18:36;;;;;;;7.38;2.05;;;;;;;4.71;100.00;99296.44;5049663;28;20573;-49
2023/01/09 06:21:05;;;;;;;5.28;1.60;;;;;;;4.71;100.00;99288.63;5053142;28;20499;-50
2023/01/09 06:23:33;;;;;;;8.07;1.90;;;;;;;4.78;100.00;99297.69;5053225;28;20102;-53
2023/01/09 06:26:01;;;;;;;7.18;1.98;;;;;;;4.74;100.00;99291.88;5053122;28;20047;-52
2023/01/09 06:28:31;;;;;;;7.85;1.90;;;;;;;4.78;100.00;99291.66;5052985;28;20052;-53
2023/01/09 06:30:59;;;;;;;7.70;2.30;;;;;;;4.82;100.00;99296.56;5052989;28;20099;-54
2023/01/09 06:33:27;;;;;;;8.15;1.90;;;;;;;4.84;100.00;99299.06;5052800;28;20067;-52
2023/01/09 06:35:55;;;;;;;9.27;1.85;;;;;;;4.91;100.00;99295.97;5053054;28;20049;-53
2023/01/09 06:38:24;;;;;;;8.07;2.00;;;;;;;4.91;100.00;99292.53;5053145;28;20052;-51
2023/01/09 06:40:52;;;;;;;8.57;2.00;;;;;;;4.91;100.00;99289.94;5052956;28;20068;-48
2023/01/09 06:43:20;;;;;;;4.97;2.00;;;;;;;4.94;100.00;99291.50;5051625;28;20052;-52
2023/01/09 06:45:49;;;;;;;10.60;3.20;;;;;;;5.00;100.00;99293.69;5051771;28;20057;-52
2023/01/09 06:48:17;;;;;;;10.25;2.00;;;;;;;5.06;100.00;99288.91;5052856;28;20033;-52
2023/01/09 06:50:47;;;;;;;13.43;2.50;;;;;;;5.05;100.00;99289.81;5052917;28;20068;-54
2023/01/09 06:53:19;;;;;;;6.60;1.80;;;;;;;5.10;100.00;99280.88;5052708;28;20049;-52
2023/01/09 06:55:47;;;;;;;12.65;2.15;;;;;;;5.09;100.00;99290.47;5052385;28;20045;-51
2023/01/09 06:58:15;;;;;;;7.55;1.75;;;;;;;5.14;100.00;99287.53;5052752;28;20087;-59
2023/01/09 07:00:43;;;;;;;8.25;1.60;;;;;;;5.16;100.00;99280.47;5051909;28;20099;-59
2023/01/09 07:03:18;;;;;;;7.07;2.17;;;;;;;5.17;100.00;99292.56;5048689;28;20048;-59
2023/01/09 07:05:47;;;;;;;6.72;1.73;;;;;;;5.22;100.00;99291.31;5049059;28;20051;-59
2023/01/09 07:08:15;;;;;;;10.40;1.90;;;;;;;5.24;100.00;99279.00;5051218;28;20040;-59
2023/01/09 07:10:44;;;;;;;9.30;2.20;;;;;;;5.27;100.00;99284.97;5052275;28;20060;-51
2023/01/09 07:13:12;;;;;;;6.43;1.58;;;;;;;5.25;100.00;99285.06;5052736;28;20044;-52
2023/01/09 07:15:40;;;;;;;8.68;2.08;;;;;;;5.28;100.00;99284.03;5051261;28;20060;-52
2023/01/09 07:18:08;;;;;;;10.23;2.10;;;;;;;5.30;100.00;99287.34;5051087;28;20489;-49
2023/01/09 07:20:40;;;;;;;8.35;1.67;;;;;;;5.31;100.00;99295.06;5052278;28;20550;-53
2023/01/09 07:23:11;;;;;;;7.80;1.60;;;;;;;5.31;100.00;99296.84;5052240;28;20515;-50
2023/01/09 07:25:39;;;;;;;9.30;1.70;;;;;;;5.32;100.00;99288.91;5051953;28;20446;-54
2023/01/09 07:28:07;;;;;;;7.30;1.90;;;;;;;5.34;100.00;99294.84;5048873;28;20451;-59
2023/01/09 07:30:35;;;;;;;8.20;1.98;;;;;;;5.31;100.00;99287.25;5050117;28;20061;-59
2023/01/09 07:33:04;;;;;;;6.85;2.10;;;;;;;5.34;100.00;99294.03;5051131;28;20068;-58
2023/01/09 07:35:34;;;;;;;8.80;2.03;;;;;;;5.34;100.00;99296.63;5052378;28;20049;-58
2023/01/09 07:38:04;;;;;;;8.50;2.00;;;;;;;5.34;100.00;99294.03;5052548;28;20102;-58
2023/01/09 07:40:32;;;;;;;8.32;1.67;;;;;;;5.41;100.00;99300.47;5049279;28;20045;-58
2023/01/09 07:43:00;;;;;;;8.10;2.10;;;;;;;5.35;100.00;99306.13;5048851;28;20084;-58
2023/01/09 07:45:28;;;;;;;8.68;2.03;;;;;;;5.36;100.00;99297.38;5052164;28;20045;-58
2023/01/09 07:47:56;;;;;;;9.98;1.98;;;;;;;5.36;100.00;99308.63;5052009;28;20369;-51
2023/01/09 07:50:25;;;;;;;8.98;2.05;;;;;;;5.38;100.00;99305.91;5049474;28;20444;-51
2023/01/09 07:52:53;;;;;;;9.95;1.90;;;;;;;5.41;100.00;99303.09;5048682;28;20049;-54
2023/01/09 07:55:22;;;;;;;7.05;2.22;;;;;;;5.42;100.00;99300.38;5050351;28;20407;-58
2023/01/09 07:57:52;;;;;;;6.45;1.90;;;;;;;5.41;100.00;99301.34;5052498;28;20049;-55
2023/01/09 08:00:21;;;;;;;8.68;2.00;;;;;;;5.38;100.00;99311.94;5052014;28;20053;-58
2023/01/09 08:02:52;;;;;;;9.85;2.17;;;;;;;5.40;100.00;99304.88;5052145;28;20052;-54
2023/01/09 08:05:20;;;;;;;9.45;1.98;;;;;;;5.39;100.00;99307.59;5051113;28;20059;-58
2023/01/09 08:07:50;;;;;;;6.32;2.22;;;;;;;5.39;100.00;99312.81;5051887;28;20033;-58
2023/01/09 08:10:19;;;;;;;10.05;2.55;;;;;;;5.40;100.00;99314.47;5050316;28;20087;-58
2023/01/09 08:12:50;;;;;;;11.18;2.40;;;;;;;5.41;100.00;99316.13;5052068;28;20053;-59
2023/01/09 08:15:18;;;;;;;8.10;2.42;;;;;;;5.39;100.00;99311.00;5051010;28;20558;-58
2023/01/09 08:17:47;;;;;;;10.48;2.17;;;;;;;5.40;100.00;99323.13;5051565;28;20049;-59
2023/01/09 08:20:17;;;;;;;8.18;2.67;;;;;;;5.41;100.00;99318.72;5052718;28;20053;-58
2023/01/09 08:22:49;;;;;;;7.35;2.20;;;;;;;5.44;100.00;99334.19;5053086;28;20076;-58
2023/01/09 08:25:18;;;;;;;6.22;2.20;;;;;;;5.47;100.00;99335.72;5056263;28;20465;-58
2023/01/09 08:27:46;;;;;;;10.57;3.03;;;;;;;5.49;100.00;99334.69;5055622;28;20045;-59
2023/01/09 08:30:17;;;;;;;8.80;2.60;;;;;;;5.53;100.00;99340.53;5055623;28;20118;-52
2023/01/09 08:32:49;;;;;;;7.25;2.45;;;;;;;5.48;100.00;99345.22;5055487;28;20049;-54
2023/01/09 08:35:18;;;;;;;11.63;3.28;;;;;;;5.51;100.00;99351.06;5055627;28;20037;-55
2023/01/09 08:37:47;;;;;;;8.35;2.90;;;;;;;5.55;100.00;99357.75;5055354;28;20057;-54
2023/01/09 08:40:17;;;;;;;9.13;3.17;;;;;;;5.52;100.00;99341.47;5054676;28;20048;-55
2023/01/09 08:48:20;;;;;;;12.60;3.30;;;;;;;5.55;100.00;99362.16;5050916;28;20044;-53
2023/01/09 08:50:48;;;;;;;11.45;3.30;;;;;;;5.52;100.00;99350.16;5053834;28;20049;-55
2023/01/09 08:53:16;;;;;;;8.90;3.40;;;;;;;5.56;100.00;99355.97;5054995;28;20538;-55
2023/01/09 08:55:44;;;;;;;8.98;2.85;;;;;;;5.53;100.00;99356.19;5051866;28;20053;-59
2023/01/09 08:58:12;;;;;;;8.20;2.72;;;;;;;5.56;100.00;99362.03;5053642;28;20037;-59
2023/01/09 09:00:42;;;;;;;9.30;3.10;;;;;;;5.58;100.00;99359.31;5054814;28;20062;-59
2023/01/09 09:03:12;;;;;;;9.57;3.53;;;;;;;5.63;100.00;99364.22;5055188;28;20054;-59
2023/01/09 09:05:40;;;;;;;5.78;2.95;;;;;;;5.65;100.00;99370.19;5055248;28;20048;-59
2023/01/09 09:08:08;;;;;;;9.00;3.30;;;;;;;5.67;100.00;99365.69;5054945;28;20045;-59
2023/01/09 09:10:37;;;;;;;9.52;3.35;;;;;;;5.69;100.00;99374.25;5054756;28;20076;-60
2023/01/09 09:13:05;;;;;;;9.07;3.00;;;;;;;5.73;100.00;99383.53;5054685;28;20053;-59
2023/01/09 09:15:34;;;;;;;8.48;3.05;;;;;;;5.79;100.00;99393.53;5054510;28;20049;-59
2023/01/09 09:18:05;;;;;;;7.53;3.05;;;;;;;5.79;100.00;99393.53;5055014;28;20049;-59
2023/01/09 09:20:35;;;;;;;6.55;3.15;;;;;;;5.83;100.00;99399.38;5054671;28;20044;-59
2023/01/09 09:23:04;;;;;;;7.18;2.97;;;;;;;5.91;100.00;99387.47;5054460;28;20045;-59
2023/01/09 09:25:32;;;;;;;9.10;3.60;;;;;;;5.92;100.00;99390.94;5054287;28;20045;-59
2023/01/09 09:28:03;;;;;;;9.75;3.45;;;;;;;5.89;100.00;99398.94;5052164;28;20068;-59
2023/01/09 09:30:32;;;;;;;7.88;4.22;;;;;;;5.91;100.00;99408.34;5050666;28;20045;-59
2023/01/09 09:33:04;;;;;;;8.40;3.50;;;;;;;5.92;100.00;99402.19;5054027;28;20499;-59
2023/01/09 09:35:33;;;;;;;9.25;3.10;;;;;;;5.93;100.00;99416.91;5054274;28;20045;-59
2023/01/09 09:38:04;;;;;;;9.98;3.67;;;;;;;5.99;100.00;99417.47;5051132;28;20045;-59
2023/01/09 09:40:54;;;;;;;9.43;3.53;;;;;;;6.04;100.00;99425.81;5051102;28;20045;-60
2023/01/09 09:46:54;;;;;;;5.72;3.28;;;;;;;6.07;100.00;99428.22;5047153;28;20115;-60
2023/01/09 09:49:27;;;;;;;7.40;3.08;;;;;;;6.06;100.00;99437.00;5050796;28;20041;-60
2023/01/09 09:52:03;;;;;;;7.15;2.85;;;;;;;6.01;100.00;99439.06;5053748;28;20072;-59
2023/01/09 09:54:36;;;;;;;5.22;2.70;;;;;;;6.03;100.00;99453.69;5052946;28;20045;-60
2023/01/09 09:57:05;;;;;;;;;;;;;;;6.07;100.00;99449.94;5054317;28;20053;-59
2023/01/09 09:59:37;;;;;;;7.38;2.75;;;;;;;6.07;100.00;99462.16;5053651;28;19924;-59
2023/01/09 10:02:19;;;;;;;6.07;2.67;;;;;;;6.06;100.00;99476.97;5048973;28;20060;-60
2023/01/09 10:04:56;;;;;;;6.47;2.85;;;;;;;6.12;100.00;99477.50;5051255;28;20081;-60
2023/01/09 10:07:30;;;;;;;5.32;2.47;;;;;;;6.13;100.00;99479.16;5053761;28;20055;-59
2023/01/09 10:10:03;;;;;;;7.10;2.60;;;;;;;6.13;100.00;99487.81;5053610;28;20053;-59
2023/01/09 10:12:35;;;;;;;7.90;2.67;;;;;;;6.18;100.00;99482.31;5053604;28;20075;-59
2023/01/09 10:15:16;;;;;;;9.13;3.37;;;;;;;6.24;100.00;99487.94;5052050;28;20053;-59
2023/01/09 10:18:01;;;;;;;7.55;3.25;;;;;;;6.21;100.00;99493.34;5049014;28;20781;-60
2023/01/09 10:20:54;;;;;;;7.68;3.17;;;;;;;6.21;100.00;99506.41;5052432;28;20041;-59
2023/01/09 10:23:52;;;;;;;9.65;3.65;;;;;;;6.22;100.00;99505.47;5051345;28;20057;-59
2023/01/09 10:26:27;;;;;;;10.55;4.28;;;;;;;6.30;100.00;99502.34;5053444;28;20075;-60
2023/01/09 10:29:19;;;;;;;9.25;3.85;;;;;;;6.36;100.00;99516.75;5053147;28;20052;-53
2023/01/09 10:32:01;;;;;;;10.88;4.55;;;;;;;6.36;100.00;99514.16;5053095;28;20076;-53
2023/01/09 10:34:37;;;;;;;;;;;;;;;6.40;100.00;99515.63;5053708;28;20049;-54
2023/01/09 10:37:11;;;;;;;11.45;4.50;;;;;;;6.46;100.00;99516.97;5053194;28;19920;-54
2023/01/09 10:39:44;;;;;;;9.93;4.63;;;;;;;6.47;100.00;99529.09;5053280;28;20812;-51
2023/01/09 10:42:21;;;;;;;8.52;3.55;;;;;;;6.48;100.00;99542.03;5051957;28;20033;-50
2023/01/09 10:44:56;;;;;;;8.32;3.85;;;;;;;6.49;100.00;99538.50;5053108;28;20052;-52
2023/01/09 10:47:29;;;;;;;8.00;3.60;;;;;;;6.42;100.00;99539.81;5052879;28;20045;-52
2023/01/09 10:49:59;;;;;;;7.03;3.50;;;;;;;6.49;100.00;99559.38;5052936;28;20372;-51
2023/01/09 10:52:35;;;;;;;9.20;3.42;;;;;;;6.49;100.00;99548.09;5052005;28;20355;-51
2023/01/09 10:55:13;;;;;;;8.43;3.30;;;;;;;6.44;100.00;99561.47;5049657;28;20099;-51
2023/01/09 10:57:44;;;;;;;9.90;3.50;;;;;;;6.45;100.00;99557.06;5051320;28;20123;-52
2023/01/09 11:00:18;;;;;;;6.95;2.92;;;;;;;6.45;100.00;99562.28;5052388;28;20082;-59
2023/01/09 11:02:49;;;;;;;9.70;3.22;;;;;;;6.46;100.00;99570.03;5052558;28;20053;-59
2023/01/09 11:05:20;;;;;;;7.45;3.13;;;;;;;6.53;100.00;99566.06;5052426;28;20256;-59
2023/01/09 11:07:55;;;;;;;9.88;3.65;;;;;;;6.57;100.00;99582.34;5052967;28;20048;-60
2023/01/09 11:10:23;;;;;;;7.43;3.70;;;;;;;6.58;100.00;99578.81;5052725;28;20508;-60
2023/01/09 11:13:13;;;;;;;8.48;3.65;;;;;;;6.59;100.00;99580.47;5052366;28;20059;-59
2023/01/09 11:15:41;;;;;;;9.45;3.70;;;;;;;6.62;100.00;99579.44;5052582;28;20045;-59
2023/01/09 11:18:23;;;;;;;11.52;4.00;;;;;;;6.64;100.00;99585.38;5052683;28;20053;-60
2023/01/09 11:20:51;;;;;;;12.20;3.03;;;;;;;6.70;100.00;99587.59;5052582;28;20048;-59
2023/01/09 11:23:30;;;;;;;7.78;3.20;;;;;;;6.69;100.00;99591.13;5052287;28;20052;-52
2023/01/09 11:26:00;;;;;;;7.63;2.90;;;;;;;6.67;100.00;99595.63;5052317;28;20048;-54
2023/01/09 11:28:29;;;;;;;8.70;2.55;;;;;;;6.63;100.00;99594.19;5052413;28;20052;-54
2023/01/09 11:31:01;;;;;;;6.00;2.78;;;;;;;6.62;100.00;99600.34;5048631;28;20053;-54
2023/01/09 11:33:34;;;;;;;6.07;2.55;;;;;;;6.64;100.00;99599.28;5046833;28;20045;-54
2023/01/09 11:36:06;;;;;;;7.57;3.13;;;;;;;6.71;100.00;99602.34;5051464;28;20044;-54
2023/01/09 11:38:49;;;;;;;7.82;2.90;;;;;;;6.75;100.00;99611.63;5048900;28;20041;-54
2023/01/09 11:41:20;;;;;;;5.47;2.88;;;;;;;6.80;100.00;99606.06;5050552;28;20045;-54
2023/01/09 11:43:51;;;;;;;6.68;2.90;;;;;;;6.81;100.00;99619.03;5048937;28;20037;-54
2023/01/09 11:46:37;;;;;;;5.72;2.97;;;;;;;6.90;100.00;99621.00;5046191;28;20059;-52
2023/01/09 11:49:21;;;;;;;10.80;2.97;;;;;;;7.00;100.00;99621.22;5052251;28;20044;-53
2023/01/09 11:52:18;;;;;;;5.55;2.75;;;;;;;7.05;100.00;99620.91;5052378;28;20047;-53
2023/01/09 11:54:55;;;;;;;5.13;2.90;;;;;;;7.11;100.00;99629.13;5056210;28;20059;-53
2023/01/09 11:57:24;;;;;;;7.40;2.50;;;;;;;7.17;100.00;99621.81;5055370;28;20049;-53
2023/01/09 11:59:56;;;;;;;8.40;2.78;;;;;;;7.18;100.00;99629.53;5052368;28;20057;-51
2023/01/09 12:02:42;;;;;;;10.00;2.38;;;;;;;7.16;100.00;99635.81;5055068;28;20503;-54
2023/01/09 12:05:21;;;;;;;6.15;2.35;;;;;;;7.21;100.00;99642.41;5055793;28;20045;-53
2023/01/09 12:08:19;;;;;;;5.70;2.28;;;;;;;7.25;100.00;99632.56;5055910;28;20083;-50